DLH1327 DTTA-EDDF
Flight info
| Callsign | DLH1327 |
|---|---|
| Flight time | 2h 25m |
| Altitude | 38000 |
| Route | TOBIB4B TOBIB A725 TANIT UA725 OSMAR DCT PIRIX DCT CAR DCT GIGGI DCT UPDUT DCT CORSI DCT OKROK DCT AKUTI DCT TORTU DCT ERTEV DCT SRN DCT ABESI DCT LADOL T163 EMPAX EMPAX5C |
| Aircraft | A319/M-SDE3FGHIRWY/LB1 |
Departure
| Time | 2026-05-08 00:38 |
|---|---|
| Airport | Tunis Carthage International Airport (DTTA) |
Arrival
| Time | 2026-05-08 03:03 |
|---|---|
| Airport | Frankfurt Main Airport (EDDF) |
| Time | Latitude | Longitude | Altitude | Speed | Heading |
|---|---|---|---|---|---|
| 2026-05-07 23:37 | 36.84532 | 10.21952 | 31 ft | 0 kts | 356° |
| 2026-05-08 00:25 | 36.84529 | 10.21952 | 30 ft | 3 kts | 356° |
| 2026-05-08 00:25 | 36.84504 | 10.21954 | 30 ft | 4 kts | 356° |
| 2026-05-08 00:25 | 36.84479 | 10.21956 | 30 ft | 4 kts | 356° |
| 2026-05-08 00:26 | 36.84456 | 10.21958 | 30 ft | 1 kts | 356° |
| 2026-05-08 00:26 | 36.84435 | 10.21962 | 30 ft | 4 kts | 340° |
| 2026-05-08 00:26 | 36.84413 | 10.21973 | 30 ft | 4 kts | 355° |
| 2026-05-08 00:26 | 36.84394 | 10.21971 | 30 ft | 4 kts | 12° |
| 2026-05-08 00:27 | 36.84381 | 10.21967 | 30 ft | 0 kts | 12° |
| 2026-05-08 00:30 | 36.84408 | 10.21975 | 30 ft | 6 kts | 13° |
| 2026-05-08 00:30 | 36.84448 | 10.22005 | 30 ft | 7 kts | 49° |
| 2026-05-08 00:30 | 36.84479 | 10.22060 | 30 ft | 8 kts | 52° |
| 2026-05-08 00:31 | 36.84506 | 10.22125 | 30 ft | 9 kts | 86° |
| 2026-05-08 00:31 | 36.84491 | 10.22210 | 30 ft | 11 kts | 103° |
| 2026-05-08 00:31 | 36.84433 | 10.22241 | 30 ft | 11 kts | 193° |
| 2026-05-08 00:31 | 36.84357 | 10.22220 | 30 ft | 13 kts | 192° |
| 2026-05-08 00:32 | 36.84257 | 10.22192 | 31 ft | 16 kts | 192° |
| 2026-05-08 00:32 | 36.84148 | 10.22163 | 31 ft | 16 kts | 192° |
| 2026-05-08 00:32 | 36.84034 | 10.22132 | 31 ft | 17 kts | 191° |
| 2026-05-08 00:32 | 36.83930 | 10.22106 | 30 ft | 12 kts | 189° |
| 2026-05-08 00:33 | 36.83862 | 10.22120 | 30 ft | 10 kts | 123° |
| 2026-05-08 00:33 | 36.83870 | 10.22203 | 31 ft | 10 kts | 78° |
| 2026-05-08 00:33 | 36.83878 | 10.22236 | 31 ft | 0 kts | 71° |
| 2026-05-08 00:36 | 36.83881 | 10.22245 | 31 ft | 3 kts | 69° |
| 2026-05-08 00:36 | 36.83900 | 10.22291 | 31 ft | 8 kts | 56° |
| 2026-05-08 00:36 | 36.83939 | 10.22345 | 31 ft | 9 kts | 45° |
| 2026-05-08 00:37 | 36.83999 | 10.22399 | 31 ft | 13 kts | 18° |
| 2026-05-08 00:37 | 36.84167 | 10.22444 | 32 ft | 54 kts | 12° |
| 2026-05-08 00:37 | 36.84798 | 10.22616 | 32 ft | 128 kts | 12° |
| 2026-05-08 00:38 | 36.86963 | 10.23190 | 917 ft | 163 kts | 12° |
| 2026-05-08 00:38 | 36.88086 | 10.22981 | 1470 ft | 174 kts | 331° |
| 2026-05-08 00:38 | 36.89212 | 10.22186 | 1845 ft | 199 kts | 338° |
| 2026-05-08 00:38 | 36.90629 | 10.21741 | 2208 ft | 222 kts | 346° |
| 2026-05-08 00:39 | 36.92221 | 10.21251 | 2612 ft | 248 kts | 344° |
| 2026-05-08 00:39 | 36.93975 | 10.20695 | 3182 ft | 271 kts | 343° |
| 2026-05-08 00:39 | 36.95832 | 10.20103 | 4118 ft | 277 kts | 341° |
| 2026-05-08 00:39 | 36.97704 | 10.19512 | 5246 ft | 276 kts | 339° |
| 2026-05-08 00:40 | 36.99564 | 10.18926 | 6330 ft | 276 kts | 339° |
| 2026-05-08 00:40 | 37.01432 | 10.18336 | 7315 ft | 278 kts | 339° |
| 2026-05-08 00:40 | 37.03315 | 10.17743 | 8285 ft | 281 kts | 339° |
| 2026-05-08 00:40 | 37.05225 | 10.17144 | 9225 ft | 286 kts | 339° |
| 2026-05-08 00:41 | 37.07173 | 10.16532 | 10109 ft | 291 kts | 339° |
| 2026-05-08 00:41 | 37.09183 | 10.15892 | 10507 ft | 314 kts | 339° |
| 2026-05-08 00:41 | 37.11376 | 10.15188 | 10895 ft | 334 kts | 339° |
| 2026-05-08 00:41 | 37.13656 | 10.14465 | 11603 ft | 341 kts | 339° |
| 2026-05-08 00:42 | 37.15977 | 10.13738 | 12421 ft | 346 kts | 339° |
| 2026-05-08 00:42 | 37.18324 | 10.13005 | 13228 ft | 350 kts | 339° |
| 2026-05-08 00:42 | 37.20706 | 10.12262 | 13968 ft | 354 kts | 339° |
| 2026-05-08 00:42 | 37.23107 | 10.11511 | 14657 ft | 358 kts | 339° |
| 2026-05-08 00:43 | 37.25541 | 10.10743 | 15362 ft | 361 kts | 339° |
| 2026-05-08 00:43 | 37.27989 | 10.09968 | 16058 ft | 365 kts | 339° |
| 2026-05-08 00:43 | 37.30463 | 10.09186 | 16749 ft | 369 kts | 340° |
| 2026-05-08 00:43 | 37.32974 | 10.08390 | 17413 ft | 374 kts | 340° |
| 2026-05-08 00:44 | 37.35506 | 10.07586 | 18105 ft | 377 kts | 340° |
| 2026-05-08 00:44 | 37.38061 | 10.06773 | 18697 ft | 381 kts | 340° |
| 2026-05-08 00:44 | 37.40654 | 10.05950 | 19283 ft | 385 kts | 340° |
| 2026-05-08 00:44 | 37.43263 | 10.05124 | 19872 ft | 388 kts | 340° |
| 2026-05-08 00:45 | 37.45899 | 10.04291 | 20473 ft | 392 kts | 340° |
| 2026-05-08 00:45 | 37.48522 | 10.03463 | 21058 ft | 395 kts | 340° |
| 2026-05-08 00:45 | 37.51236 | 10.02604 | 21627 ft | 399 kts | 340° |
| 2026-05-08 00:45 | 37.53939 | 10.01745 | 22213 ft | 403 kts | 340° |
| 2026-05-08 00:46 | 37.56679 | 10.00870 | 22706 ft | 409 kts | 340° |
| 2026-05-08 00:46 | 37.59453 | 9.99979 | 23242 ft | 413 kts | 340° |
| 2026-05-08 00:46 | 37.62217 | 9.99094 | 23718 ft | 416 kts | 340° |
| 2026-05-08 00:46 | 37.65041 | 9.98194 | 24163 ft | 419 kts | 340° |
| 2026-05-08 00:47 | 37.67880 | 9.97289 | 24607 ft | 422 kts | 340° |
| 2026-05-08 00:47 | 37.70736 | 9.96379 | 25043 ft | 425 kts | 340° |
| 2026-05-08 00:47 | 37.73617 | 9.95457 | 25466 ft | 427 kts | 340° |
| 2026-05-08 00:47 | 37.76513 | 9.94527 | 25888 ft | 430 kts | 340° |
| 2026-05-08 00:48 | 37.79427 | 9.93592 | 26279 ft | 434 kts | 341° |
| 2026-05-08 00:48 | 37.82372 | 9.92644 | 26647 ft | 438 kts | 341° |
| 2026-05-08 00:48 | 37.85301 | 9.91701 | 27037 ft | 441 kts | 341° |
| 2026-05-08 00:48 | 37.88320 | 9.90730 | 27450 ft | 444 kts | 341° |
| 2026-05-08 00:49 | 37.91290 | 9.89777 | 27855 ft | 447 kts | 341° |
| 2026-05-08 00:49 | 37.94353 | 9.88792 | 28259 ft | 450 kts | 341° |
| 2026-05-08 00:49 | 37.97353 | 9.87825 | 28648 ft | 452 kts | 341° |
| 2026-05-08 00:49 | 38.00416 | 9.86836 | 29031 ft | 455 kts | 341° |
| 2026-05-08 00:50 | 38.03496 | 9.85841 | 29404 ft | 458 kts | 341° |
| 2026-05-08 00:50 | 38.06593 | 9.84841 | 29774 ft | 460 kts | 341° |
| 2026-05-08 00:50 | 38.09707 | 9.83837 | 30107 ft | 463 kts | 341° |
| 2026-05-08 00:50 | 38.12838 | 9.82825 | 30439 ft | 465 kts | 340° |
| 2026-05-08 00:51 | 38.15980 | 9.81806 | 30758 ft | 467 kts | 340° |
| 2026-05-08 00:51 | 38.19134 | 9.80784 | 31065 ft | 468 kts | 340° |
| 2026-05-08 00:51 | 38.22297 | 9.79758 | 31378 ft | 470 kts | 340° |
| 2026-05-08 00:51 | 38.25463 | 9.78732 | 31791 ft | 470 kts | 341° |
| 2026-05-08 00:52 | 38.28648 | 9.77701 | 32080 ft | 472 kts | 340° |
| 2026-05-08 00:52 | 38.31834 | 9.76678 | 32450 ft | 472 kts | 340° |
| 2026-05-08 00:52 | 38.35019 | 9.75659 | 32876 ft | 471 kts | 340° |
| 2026-05-08 00:52 | 38.38196 | 9.74645 | 33319 ft | 470 kts | 340° |
| 2026-05-08 00:53 | 38.41322 | 9.73644 | 33763 ft | 468 kts | 339° |
| 2026-05-08 00:53 | 38.44477 | 9.72633 | 34173 ft | 467 kts | 339° |
| 2026-05-08 00:53 | 38.47620 | 9.71627 | 34574 ft | 465 kts | 339° |
| 2026-05-08 00:53 | 38.50755 | 9.70622 | 34955 ft | 464 kts | 339° |
| 2026-05-08 00:54 | 38.53901 | 9.69606 | 35255 ft | 465 kts | 339° |
| 2026-05-08 00:54 | 38.57034 | 9.68590 | 35593 ft | 463 kts | 339° |
| 2026-05-08 00:54 | 38.60156 | 9.67578 | 35961 ft | 462 kts | 339° |
| 2026-05-08 00:54 | 38.63264 | 9.66573 | 36329 ft | 459 kts | 338° |
| 2026-05-08 00:55 | 38.66352 | 9.65574 | 36691 ft | 457 kts | 338° |
| 2026-05-08 00:55 | 38.69399 | 9.64588 | 37051 ft | 455 kts | 338° |
| 2026-05-08 00:55 | 38.72459 | 9.63596 | 37419 ft | 453 kts | 338° |
| 2026-05-08 00:55 | 38.75516 | 9.62605 | 37747 ft | 452 kts | 338° |
| 2026-05-08 00:56 | 38.78561 | 9.61617 | 37920 ft | 452 kts | 338° |
| 2026-05-08 00:56 | 38.84633 | 9.59640 | 37950 ft | 449 kts | 338° |
| 2026-05-08 00:57 | 38.90686 | 9.57654 | 37951 ft | 449 kts | 338° |
| 2026-05-08 00:57 | 38.96735 | 9.55644 | 37984 ft | 449 kts | 338° |
| 2026-05-08 00:58 | 39.02791 | 9.53613 | 37958 ft | 450 kts | 338° |
| 2026-05-08 00:58 | 39.08849 | 9.51579 | 37958 ft | 450 kts | 338° |
| 2026-05-08 00:59 | 39.14931 | 9.49593 | 37962 ft | 452 kts | 339° |
| 2026-05-08 00:59 | 39.21077 | 9.47795 | 37988 ft | 453 kts | 340° |
| 2026-05-08 01:00 | 39.27232 | 9.46028 | 37992 ft | 453 kts | 340° |
| 2026-05-08 01:00 | 39.33384 | 9.44219 | 37991 ft | 453 kts | 340° |
| 2026-05-08 01:01 | 39.39494 | 9.42396 | 38004 ft | 453 kts | 340° |
| 2026-05-08 01:01 | 39.45640 | 9.40555 | 38024 ft | 453 kts | 341° |
| 2026-05-08 01:02 | 39.51791 | 9.38707 | 38020 ft | 454 kts | 340° |
| 2026-05-08 01:02 | 39.57947 | 9.36860 | 37999 ft | 454 kts | 341° |
| 2026-05-08 01:03 | 39.64100 | 9.35025 | 38008 ft | 453 kts | 341° |
| 2026-05-08 01:03 | 39.70211 | 9.33197 | 37988 ft | 448 kts | 341° |
| 2026-05-08 01:04 | 39.76266 | 9.31374 | 37996 ft | 446 kts | 341° |
| 2026-05-08 01:04 | 39.82302 | 9.29547 | 38001 ft | 445 kts | 341° |
| 2026-05-08 01:05 | 39.88328 | 9.27715 | 38026 ft | 444 kts | 341° |
| 2026-05-08 01:05 | 39.94343 | 9.25893 | 38018 ft | 443 kts | 341° |
| 2026-05-08 01:06 | 40.00330 | 9.24079 | 38016 ft | 441 kts | 341° |
| 2026-05-08 01:06 | 40.06256 | 9.22279 | 38016 ft | 439 kts | 341° |
| 2026-05-08 01:07 | 40.12185 | 9.20471 | 38026 ft | 437 kts | 341° |
| 2026-05-08 01:07 | 40.18087 | 9.18670 | 37995 ft | 434 kts | 341° |
| 2026-05-08 01:08 | 40.23982 | 9.16868 | 37996 ft | 435 kts | 341° |
| 2026-05-08 01:08 | 40.29865 | 9.15049 | 37997 ft | 435 kts | 341° |
| 2026-05-08 01:09 | 40.35755 | 9.13209 | 37991 ft | 435 kts | 340° |
| 2026-05-08 01:09 | 40.41638 | 9.11363 | 37992 ft | 434 kts | 340° |
| 2026-05-08 01:10 | 40.47484 | 9.09521 | 37997 ft | 434 kts | 340° |
| 2026-05-08 01:10 | 40.53367 | 9.07661 | 38002 ft | 435 kts | 341° |
| 2026-05-08 01:11 | 40.59252 | 9.05806 | 38009 ft | 435 kts | 341° |
| 2026-05-08 01:11 | 40.65142 | 9.03944 | 38002 ft | 435 kts | 341° |
| 2026-05-08 01:12 | 40.71035 | 9.02079 | 37997 ft | 435 kts | 341° |
| 2026-05-08 01:12 | 40.76929 | 9.00215 | 37998 ft | 435 kts | 340° |
| 2026-05-08 01:13 | 40.82826 | 8.98343 | 38012 ft | 436 kts | 340° |
| 2026-05-08 01:13 | 40.88718 | 8.96460 | 38000 ft | 436 kts | 340° |
| 2026-05-08 01:14 | 40.94624 | 8.94575 | 38000 ft | 436 kts | 341° |
| 2026-05-08 01:14 | 41.00527 | 8.92703 | 38006 ft | 436 kts | 340° |
| 2026-05-08 01:15 | 41.06402 | 8.90830 | 37999 ft | 436 kts | 340° |
| 2026-05-08 01:15 | 41.12269 | 8.88948 | 37996 ft | 436 kts | 340° |
| 2026-05-08 01:16 | 41.18173 | 8.87045 | 37988 ft | 436 kts | 340° |
| 2026-05-08 01:16 | 41.24071 | 8.85134 | 38003 ft | 436 kts | 340° |
| 2026-05-08 01:17 | 41.29886 | 8.82953 | 37992 ft | 432 kts | 336° |
| 2026-05-08 01:17 | 41.35799 | 8.81407 | 37983 ft | 443 kts | 353° |
| 2026-05-08 01:18 | 41.42000 | 8.81609 | 37975 ft | 447 kts | 357° |
| 2026-05-08 01:18 | 41.48224 | 8.81985 | 37986 ft | 447 kts | 357° |
| 2026-05-08 01:19 | 41.54455 | 8.82352 | 37983 ft | 447 kts | 357° |
| 2026-05-08 01:19 | 41.60640 | 8.82680 | 37981 ft | 447 kts | 357° |
| 2026-05-08 01:20 | 41.66863 | 8.83003 | 37986 ft | 447 kts | 357° |
| 2026-05-08 01:20 | 41.73087 | 8.83335 | 37970 ft | 447 kts | 357° |
| 2026-05-08 01:21 | 41.79310 | 8.83662 | 37960 ft | 447 kts | 357° |
| 2026-05-08 01:21 | 41.84483 | 8.83935 | 37952 ft | 447 kts | 357° |
| 2026-05-08 01:22 | 41.90703 | 8.84261 | 37968 ft | 447 kts | 357° |
| 2026-05-08 01:22 | 41.96928 | 8.84593 | 37963 ft | 447 kts | 357° |
| 2026-05-08 01:23 | 42.03158 | 8.84936 | 37964 ft | 447 kts | 357° |
| 2026-05-08 01:23 | 42.09384 | 8.85278 | 37977 ft | 447 kts | 357° |
| 2026-05-08 01:24 | 42.15601 | 8.85613 | 37977 ft | 447 kts | 357° |
| 2026-05-08 01:24 | 42.21787 | 8.85934 | 37979 ft | 447 kts | 357° |
| 2026-05-08 01:25 | 42.28001 | 8.86268 | 38002 ft | 447 kts | 357° |
| 2026-05-08 01:25 | 42.34225 | 8.86606 | 37992 ft | 447 kts | 357° |
| 2026-05-08 01:26 | 42.40442 | 8.86940 | 37987 ft | 447 kts | 357° |
| 2026-05-08 01:26 | 42.46661 | 8.87271 | 37984 ft | 447 kts | 357° |
| 2026-05-08 01:27 | 42.52885 | 8.87621 | 37987 ft | 447 kts | 357° |
| 2026-05-08 01:27 | 42.59059 | 8.87962 | 37981 ft | 447 kts | 357° |
| 2026-05-08 01:28 | 42.65270 | 8.88291 | 37979 ft | 447 kts | 357° |
| 2026-05-08 01:28 | 42.71486 | 8.88626 | 37988 ft | 447 kts | 357° |
| 2026-05-08 01:29 | 42.77706 | 8.88970 | 37990 ft | 447 kts | 357° |
| 2026-05-08 01:29 | 42.83931 | 8.89391 | 37992 ft | 448 kts | 359° |
| 2026-05-08 01:30 | 42.90026 | 8.90100 | 38014 ft | 449 kts | 0° |
| 2026-05-08 01:30 | 42.96252 | 8.90920 | 38009 ft | 449 kts | 0° |
| 2026-05-08 01:31 | 43.02479 | 8.91688 | 38011 ft | 449 kts | 0° |
| 2026-05-08 01:31 | 43.08712 | 8.92402 | 38016 ft | 449 kts | 360° |
| 2026-05-08 01:32 | 43.14933 | 8.93108 | 38019 ft | 448 kts | 360° |
| 2026-05-08 01:32 | 43.21145 | 8.93835 | 38023 ft | 447 kts | 0° |
| 2026-05-08 01:33 | 43.27332 | 8.94556 | 38030 ft | 445 kts | 360° |
| 2026-05-08 01:33 | 43.33439 | 8.95245 | 38015 ft | 441 kts | 359° |
| 2026-05-08 01:34 | 43.39551 | 8.95902 | 38010 ft | 439 kts | 358° |
| 2026-05-08 01:34 | 43.45640 | 8.96067 | 38008 ft | 436 kts | 354° |
| 2026-05-08 01:35 | 43.51716 | 8.95919 | 38022 ft | 436 kts | 353° |
| 2026-05-08 01:35 | 43.57786 | 8.95814 | 38018 ft | 437 kts | 354° |
| 2026-05-08 01:36 | 43.63879 | 8.95803 | 38019 ft | 437 kts | 355° |
| 2026-05-08 01:36 | 43.69969 | 8.95943 | 38037 ft | 438 kts | 356° |
| 2026-05-08 01:37 | 43.76036 | 8.96188 | 38027 ft | 439 kts | 356° |
| 2026-05-08 01:37 | 43.82140 | 8.96409 | 38019 ft | 438 kts | 355° |
| 2026-05-08 01:38 | 43.88240 | 8.96590 | 38033 ft | 439 kts | 355° |
| 2026-05-08 01:38 | 43.94349 | 8.96767 | 38018 ft | 439 kts | 355° |
| 2026-05-08 01:39 | 44.00466 | 8.96952 | 38015 ft | 440 kts | 356° |
| 2026-05-08 01:39 | 44.06592 | 8.97152 | 38015 ft | 440 kts | 356° |
| 2026-05-08 01:40 | 44.12721 | 8.97341 | 38020 ft | 440 kts | 356° |
| 2026-05-08 01:40 | 44.18813 | 8.97528 | 38021 ft | 441 kts | 356° |
| 2026-05-08 01:41 | 44.24959 | 8.97718 | 38019 ft | 441 kts | 356° |
| 2026-05-08 01:41 | 44.31109 | 8.97914 | 38028 ft | 441 kts | 356° |
| 2026-05-08 01:42 | 44.37243 | 8.98118 | 38023 ft | 441 kts | 356° |
| 2026-05-08 01:42 | 44.43385 | 8.98308 | 38021 ft | 441 kts | 356° |
| 2026-05-08 01:43 | 44.49482 | 8.98487 | 38023 ft | 441 kts | 356° |
| 2026-05-08 01:43 | 44.55439 | 8.98669 | 38026 ft | 441 kts | 356° |
| 2026-05-08 01:44 | 44.61562 | 8.98866 | 38019 ft | 436 kts | 355° |
| 2026-05-08 01:44 | 44.67528 | 8.99058 | 38024 ft | 423 kts | 356° |
| 2026-05-08 01:45 | 44.73396 | 8.99239 | 38033 ft | 421 kts | 355° |
| 2026-05-08 01:45 | 44.79245 | 8.99421 | 38035 ft | 420 kts | 355° |
| 2026-05-08 01:46 | 44.85063 | 8.99610 | 38037 ft | 420 kts | 356° |
| 2026-05-08 01:46 | 44.90897 | 8.99800 | 38036 ft | 419 kts | 356° |
| 2026-05-08 01:47 | 44.96723 | 8.99986 | 38029 ft | 418 kts | 356° |
| 2026-05-08 01:47 | 45.02554 | 9.00158 | 38031 ft | 418 kts | 356° |
| 2026-05-08 01:48 | 45.11287 | 9.00429 | 38047 ft | 418 kts | 356° |
| 2026-05-08 01:48 | 45.17074 | 9.00619 | 38043 ft | 418 kts | 356° |
| 2026-05-08 01:49 | 45.22890 | 9.00810 | 38053 ft | 418 kts | 356° |
| 2026-05-08 01:49 | 45.28688 | 9.00996 | 38042 ft | 417 kts | 356° |
| 2026-05-08 01:50 | 45.34497 | 9.01185 | 38037 ft | 417 kts | 356° |
| 2026-05-08 01:50 | 45.40289 | 9.01378 | 38036 ft | 417 kts | 356° |
| 2026-05-08 01:51 | 45.46097 | 9.01565 | 38054 ft | 416 kts | 356° |
| 2026-05-08 01:51 | 45.51881 | 9.01751 | 38048 ft | 415 kts | 356° |
| 2026-05-08 01:52 | 45.57666 | 9.01930 | 38046 ft | 415 kts | 356° |
| 2026-05-08 01:52 | 45.63394 | 9.02116 | 38065 ft | 414 kts | 356° |
| 2026-05-08 01:53 | 45.69162 | 9.02324 | 38066 ft | 414 kts | 357° |
| 2026-05-08 01:53 | 45.74849 | 9.02565 | 38059 ft | 414 kts | 357° |
| 2026-05-08 01:54 | 45.80613 | 9.02815 | 38061 ft | 414 kts | 357° |
| 2026-05-08 01:54 | 45.86359 | 9.03062 | 38085 ft | 412 kts | 357° |
| 2026-05-08 01:55 | 45.92079 | 9.03304 | 38082 ft | 410 kts | 357° |
| 2026-05-08 01:55 | 45.97733 | 9.03533 | 38080 ft | 409 kts | 357° |
| 2026-05-08 01:56 | 46.03417 | 9.03763 | 38090 ft | 408 kts | 357° |
| 2026-05-08 01:56 | 46.09089 | 9.03992 | 38080 ft | 407 kts | 358° |
| 2026-05-08 01:57 | 46.14753 | 9.04221 | 38074 ft | 407 kts | 358° |
| 2026-05-08 01:57 | 46.20408 | 9.04244 | 38069 ft | 405 kts | 354° |
| 2026-05-08 01:58 | 46.26037 | 9.03939 | 38072 ft | 405 kts | 353° |
| 2026-05-08 01:58 | 46.31665 | 9.03614 | 38069 ft | 405 kts | 354° |
| 2026-05-08 01:59 | 46.37289 | 9.03350 | 38062 ft | 404 kts | 354° |
| 2026-05-08 01:59 | 46.42913 | 9.03112 | 38065 ft | 404 kts | 354° |
| 2026-05-08 02:00 | 46.48538 | 9.02871 | 38062 ft | 404 kts | 354° |
| 2026-05-08 02:00 | 46.54163 | 9.02632 | 38049 ft | 403 kts | 354° |
| 2026-05-08 02:01 | 46.59782 | 9.02391 | 38055 ft | 404 kts | 354° |
| 2026-05-08 02:01 | 46.65414 | 9.02149 | 38059 ft | 404 kts | 354° |
| 2026-05-08 02:02 | 46.70879 | 9.01907 | 38050 ft | 404 kts | 354° |
| 2026-05-08 02:02 | 46.76508 | 9.01658 | 38051 ft | 405 kts | 354° |
| 2026-05-08 02:03 | 46.82151 | 9.01415 | 38051 ft | 405 kts | 354° |
| 2026-05-08 02:03 | 46.87785 | 9.01168 | 38063 ft | 405 kts | 354° |
| 2026-05-08 02:04 | 46.93393 | 9.00913 | 38053 ft | 405 kts | 354° |
| 2026-05-08 02:04 | 46.99024 | 9.00659 | 38045 ft | 405 kts | 354° |
| 2026-05-08 02:05 | 47.04664 | 9.00411 | 38059 ft | 405 kts | 354° |
| 2026-05-08 02:05 | 47.10268 | 9.00164 | 38054 ft | 405 kts | 355° |
| 2026-05-08 02:06 | 47.15903 | 8.99919 | 38050 ft | 404 kts | 354° |
| 2026-05-08 02:06 | 47.21532 | 8.99666 | 38053 ft | 405 kts | 354° |
| 2026-05-08 02:07 | 47.27161 | 8.99407 | 38060 ft | 404 kts | 354° |
| 2026-05-08 02:07 | 47.32785 | 8.99158 | 38060 ft | 404 kts | 354° |
| 2026-05-08 02:08 | 47.38401 | 8.98904 | 38061 ft | 404 kts | 354° |
| 2026-05-08 02:08 | 47.43064 | 8.98699 | 38060 ft | 403 kts | 354° |
| 2026-05-08 02:09 | 47.48678 | 8.98448 | 38070 ft | 403 kts | 354° |
| 2026-05-08 02:09 | 47.54283 | 8.98191 | 38068 ft | 403 kts | 354° |
| 2026-05-08 02:10 | 47.59889 | 8.97928 | 38064 ft | 403 kts | 354° |
| 2026-05-08 02:10 | 47.65494 | 8.97670 | 38056 ft | 402 kts | 354° |
| 2026-05-08 02:11 | 47.71097 | 8.97425 | 38071 ft | 402 kts | 354° |
| 2026-05-08 02:11 | 47.76697 | 8.97178 | 38068 ft | 402 kts | 354° |
| 2026-05-08 02:12 | 47.82260 | 8.96921 | 38076 ft | 402 kts | 354° |
| 2026-05-08 02:12 | 47.87857 | 8.96656 | 38089 ft | 402 kts | 354° |
| 2026-05-08 02:13 | 47.93453 | 8.96398 | 38081 ft | 402 kts | 354° |
| 2026-05-08 02:13 | 47.99050 | 8.96148 | 38086 ft | 402 kts | 354° |
| 2026-05-08 02:14 | 48.04676 | 8.95894 | 37977 ft | 408 kts | 354° |
| 2026-05-08 02:14 | 48.07497 | 8.95764 | 37696 ft | 402 kts | 354° |
| 2026-05-08 02:14 | 48.10268 | 8.95639 | 37442 ft | 396 kts | 354° |
| 2026-05-08 02:15 | 48.13004 | 8.95516 | 37170 ft | 391 kts | 354° |
| 2026-05-08 02:15 | 48.15721 | 8.95393 | 36875 ft | 390 kts | 354° |
| 2026-05-08 02:15 | 48.18453 | 8.95604 | 36479 ft | 396 kts | 1° |
| 2026-05-08 02:15 | 48.21197 | 8.96020 | 36097 ft | 395 kts | 1° |
| 2026-05-08 02:16 | 48.23927 | 8.96436 | 35723 ft | 393 kts | 1° |
| 2026-05-08 02:16 | 48.26641 | 8.96850 | 35352 ft | 390 kts | 1° |
| 2026-05-08 02:16 | 48.29334 | 8.97259 | 34987 ft | 388 kts | 1° |
| 2026-05-08 02:16 | 48.32016 | 8.97666 | 34642 ft | 385 kts | 1° |
| 2026-05-08 02:17 | 48.34675 | 8.98070 | 34283 ft | 383 kts | 0° |
| 2026-05-08 02:17 | 48.37316 | 8.98484 | 33905 ft | 381 kts | 1° |
| 2026-05-08 02:17 | 48.39948 | 8.98921 | 33485 ft | 379 kts | 1° |
| 2026-05-08 02:17 | 48.42563 | 8.99367 | 33082 ft | 377 kts | 1° |
| 2026-05-08 02:18 | 48.45162 | 8.99815 | 32685 ft | 375 kts | 1° |
| 2026-05-08 02:18 | 48.47749 | 9.00259 | 32287 ft | 373 kts | 1° |
| 2026-05-08 02:18 | 48.50319 | 9.00698 | 31896 ft | 371 kts | 1° |
| 2026-05-08 02:18 | 48.52881 | 9.01132 | 31511 ft | 369 kts | 1° |
| 2026-05-08 02:19 | 48.55421 | 9.01563 | 31129 ft | 366 kts | 2° |
| 2026-05-08 02:19 | 48.57945 | 9.01994 | 30753 ft | 364 kts | 2° |
| 2026-05-08 02:19 | 48.60453 | 9.02425 | 30384 ft | 361 kts | 2° |
| 2026-05-08 02:19 | 48.62913 | 9.02846 | 30013 ft | 359 kts | 2° |
| 2026-05-08 02:20 | 48.65384 | 9.03269 | 29568 ft | 356 kts | 2° |
| 2026-05-08 02:20 | 48.67833 | 9.03687 | 29144 ft | 353 kts | 2° |
| 2026-05-08 02:20 | 48.70265 | 9.04103 | 28724 ft | 350 kts | 2° |
| 2026-05-08 02:20 | 48.72680 | 9.04516 | 28321 ft | 348 kts | 2° |
| 2026-05-08 02:21 | 48.75072 | 9.04925 | 27916 ft | 345 kts | 2° |
| 2026-05-08 02:21 | 48.77445 | 9.05334 | 27515 ft | 342 kts | 2° |
| 2026-05-08 02:21 | 48.79802 | 9.05740 | 27115 ft | 339 kts | 3° |
| 2026-05-08 02:21 | 48.82134 | 9.06141 | 26728 ft | 336 kts | 2° |
| 2026-05-08 02:22 | 48.84452 | 9.06537 | 26342 ft | 334 kts | 3° |
| 2026-05-08 02:22 | 48.86751 | 9.06934 | 25962 ft | 332 kts | 3° |
| 2026-05-08 02:22 | 48.89037 | 9.07329 | 25586 ft | 329 kts | 3° |
| 2026-05-08 02:22 | 48.91312 | 9.07719 | 25215 ft | 327 kts | 3° |
| 2026-05-08 02:23 | 48.93567 | 9.08104 | 24854 ft | 325 kts | 3° |
| 2026-05-08 02:23 | 48.95810 | 9.08490 | 24500 ft | 323 kts | 3° |
| 2026-05-08 02:23 | 48.98041 | 9.08879 | 24144 ft | 322 kts | 3° |
| 2026-05-08 02:23 | 49.00257 | 9.09269 | 23792 ft | 320 kts | 3° |
| 2026-05-08 02:24 | 49.02461 | 9.09658 | 23399 ft | 318 kts | 3° |
| 2026-05-08 02:24 | 49.04628 | 9.10039 | 22988 ft | 317 kts | 4° |
| 2026-05-08 02:24 | 49.06841 | 9.10428 | 22573 ft | 316 kts | 3° |
| 2026-05-08 02:24 | 49.09018 | 9.10806 | 22171 ft | 315 kts | 3° |
| 2026-05-08 02:25 | 49.11164 | 9.11178 | 21772 ft | 314 kts | 3° |
| 2026-05-08 02:25 | 49.13333 | 9.11550 | 21382 ft | 313 kts | 3° |
| 2026-05-08 02:25 | 49.15498 | 9.11923 | 20994 ft | 313 kts | 3° |
| 2026-05-08 02:25 | 49.17655 | 9.12294 | 20619 ft | 312 kts | 4° |
| 2026-05-08 02:26 | 49.19816 | 9.12666 | 20240 ft | 312 kts | 4° |
| 2026-05-08 02:26 | 49.21973 | 9.13040 | 19866 ft | 312 kts | 4° |
| 2026-05-08 02:26 | 49.24128 | 9.13418 | 19496 ft | 312 kts | 4° |
| 2026-05-08 02:26 | 49.26280 | 9.13798 | 19135 ft | 311 kts | 4° |
| 2026-05-08 02:27 | 49.28435 | 9.14207 | 18774 ft | 312 kts | 8° |
| 2026-05-08 02:27 | 49.30557 | 9.14933 | 18419 ft | 312 kts | 11° |
| 2026-05-08 02:27 | 49.32674 | 9.15688 | 18019 ft | 313 kts | 11° |
| 2026-05-08 02:27 | 49.34797 | 9.16443 | 17615 ft | 313 kts | 11° |
| 2026-05-08 02:28 | 49.36920 | 9.17197 | 17212 ft | 313 kts | 11° |
| 2026-05-08 02:28 | 49.39045 | 9.17948 | 16829 ft | 313 kts | 11° |
| 2026-05-08 02:28 | 49.41161 | 9.18695 | 16531 ft | 310 kts | 11° |
| 2026-05-08 02:28 | 49.43250 | 9.19436 | 16273 ft | 306 kts | 11° |
| 2026-05-08 02:29 | 49.45312 | 9.20168 | 16014 ft | 303 kts | 11° |
| 2026-05-08 02:29 | 49.47354 | 9.20892 | 15759 ft | 299 kts | 11° |
| 2026-05-08 02:29 | 49.49371 | 9.21607 | 15511 ft | 295 kts | 11° |
| 2026-05-08 02:29 | 49.51354 | 9.22311 | 15338 ft | 290 kts | 11° |
| 2026-05-08 02:30 | 49.53298 | 9.23006 | 15162 ft | 284 kts | 11° |
| 2026-05-08 02:30 | 49.55209 | 9.23691 | 14989 ft | 280 kts | 11° |
| 2026-05-08 02:30 | 49.57125 | 9.24060 | 14818 ft | 276 kts | 354° |
| 2026-05-08 02:30 | 49.58946 | 9.23387 | 14648 ft | 272 kts | 337° |
| 2026-05-08 02:31 | 49.60716 | 9.22370 | 14499 ft | 271 kts | 337° |
| 2026-05-08 02:31 | 49.62481 | 9.21343 | 14379 ft | 271 kts | 337° |
| 2026-05-08 02:31 | 49.64237 | 9.20314 | 14258 ft | 270 kts | 337° |
| 2026-05-08 02:31 | 49.65997 | 9.19283 | 14137 ft | 270 kts | 337° |
| 2026-05-08 02:32 | 49.67749 | 9.18262 | 14013 ft | 269 kts | 338° |
| 2026-05-08 02:32 | 49.69504 | 9.17241 | 13899 ft | 269 kts | 338° |
| 2026-05-08 02:32 | 49.71251 | 9.16221 | 13767 ft | 268 kts | 338° |
| 2026-05-08 02:32 | 49.72993 | 9.15203 | 13630 ft | 267 kts | 338° |
| 2026-05-08 02:33 | 49.74732 | 9.14190 | 13497 ft | 267 kts | 338° |
| 2026-05-08 02:33 | 49.76471 | 9.13178 | 13356 ft | 266 kts | 338° |
| 2026-05-08 02:33 | 49.78181 | 9.12178 | 13230 ft | 266 kts | 338° |
| 2026-05-08 02:33 | 49.79909 | 9.11163 | 13100 ft | 265 kts | 338° |
| 2026-05-08 02:34 | 49.81632 | 9.10150 | 12965 ft | 265 kts | 338° |
| 2026-05-08 02:34 | 49.83355 | 9.09138 | 12834 ft | 264 kts | 338° |
| 2026-05-08 02:34 | 49.85071 | 9.08131 | 12717 ft | 263 kts | 338° |
| 2026-05-08 02:34 | 49.86786 | 9.07124 | 12582 ft | 263 kts | 338° |
| 2026-05-08 02:35 | 49.88496 | 9.06116 | 12453 ft | 263 kts | 338° |
| 2026-05-08 02:35 | 49.90200 | 9.05114 | 12328 ft | 262 kts | 338° |
| 2026-05-08 02:35 | 49.91900 | 9.04117 | 12193 ft | 260 kts | 338° |
| 2026-05-08 02:35 | 49.93598 | 9.03121 | 12071 ft | 261 kts | 339° |
| 2026-05-08 02:36 | 49.95393 | 9.02741 | 11939 ft | 263 kts | 5° |
| 2026-05-08 02:36 | 49.97126 | 9.03628 | 11811 ft | 266 kts | 31° |
| 2026-05-08 02:36 | 49.98435 | 9.05631 | 11685 ft | 267 kts | 58° |
| 2026-05-08 02:36 | 49.99043 | 9.08340 | 11554 ft | 268 kts | 85° |
| 2026-05-08 02:37 | 49.98833 | 9.11188 | 11434 ft | 267 kts | 107° |
| 2026-05-08 02:37 | 49.98310 | 9.13961 | 11303 ft | 267 kts | 108° |
| 2026-05-08 02:37 | 49.97760 | 9.16717 | 11182 ft | 267 kts | 108° |
| 2026-05-08 02:37 | 49.97131 | 9.19386 | 11089 ft | 265 kts | 121° |
| 2026-05-08 02:38 | 49.95887 | 9.21504 | 11092 ft | 263 kts | 148° |
| 2026-05-08 02:38 | 49.94232 | 9.22492 | 11093 ft | 260 kts | 175° |
| 2026-05-08 02:38 | 49.92459 | 9.22217 | 11095 ft | 256 kts | 202° |
| 2026-05-08 02:38 | 49.90978 | 9.20765 | 11095 ft | 253 kts | 228° |
| 2026-05-08 02:39 | 49.90058 | 9.18479 | 11096 ft | 251 kts | 252° |
| 2026-05-08 02:39 | 49.89861 | 9.15812 | 11095 ft | 251 kts | 277° |
| 2026-05-08 02:39 | 49.90263 | 9.13174 | 11095 ft | 252 kts | 285° |
| 2026-05-08 02:39 | 49.90760 | 9.10574 | 11100 ft | 252 kts | 287° |
| 2026-05-08 02:40 | 49.91284 | 9.07975 | 11097 ft | 252 kts | 287° |
| 2026-05-08 02:40 | 49.91810 | 9.05372 | 11097 ft | 253 kts | 287° |
| 2026-05-08 02:40 | 49.92422 | 9.02827 | 11092 ft | 253 kts | 300° |
| 2026-05-08 02:40 | 49.93635 | 9.00867 | 11100 ft | 255 kts | 327° |
| 2026-05-08 02:41 | 49.95312 | 8.99989 | 11103 ft | 258 kts | 355° |
| 2026-05-08 02:41 | 49.97077 | 9.00439 | 11103 ft | 262 kts | 24° |
| 2026-05-08 02:41 | 49.98498 | 9.02187 | 11102 ft | 264 kts | 53° |
| 2026-05-08 02:41 | 49.99203 | 9.04800 | 11103 ft | 265 kts | 83° |
| 2026-05-08 02:42 | 49.99029 | 9.07629 | 11103 ft | 265 kts | 107° |
| 2026-05-08 02:42 | 49.98499 | 9.10384 | 11101 ft | 266 kts | 108° |
| 2026-05-08 02:42 | 49.97956 | 9.13134 | 11102 ft | 266 kts | 108° |
| 2026-05-08 02:42 | 49.97405 | 9.15890 | 11097 ft | 267 kts | 108° |
| 2026-05-08 02:43 | 49.96804 | 9.18575 | 11094 ft | 267 kts | 118° |
| 2026-05-08 02:43 | 49.95593 | 9.20743 | 11068 ft | 264 kts | 148° |
| 2026-05-08 02:43 | 49.93926 | 9.21697 | 10942 ft | 259 kts | 177° |
| 2026-05-08 02:43 | 49.92176 | 9.21320 | 10819 ft | 255 kts | 205° |
| 2026-05-08 02:44 | 49.90768 | 9.19741 | 10698 ft | 251 kts | 232° |
| 2026-05-08 02:44 | 49.89994 | 9.17350 | 10576 ft | 249 kts | 258° |
| 2026-05-08 02:44 | 49.90000 | 9.14692 | 10453 ft | 248 kts | 283° |
| 2026-05-08 02:44 | 49.90471 | 9.12113 | 10333 ft | 247 kts | 287° |
| 2026-05-08 02:45 | 49.90964 | 9.09613 | 10217 ft | 237 kts | 287° |
| 2026-05-08 02:45 | 49.91435 | 9.07216 | 10116 ft | 229 kts | 287° |
| 2026-05-08 02:45 | 49.91890 | 9.04868 | 10069 ft | 228 kts | 286° |
| 2026-05-08 02:45 | 49.92344 | 9.02524 | 9941 ft | 226 kts | 286° |
| 2026-05-08 02:46 | 49.92797 | 9.00191 | 9808 ft | 226 kts | 286° |
| 2026-05-08 02:46 | 49.93249 | 8.97858 | 9678 ft | 225 kts | 286° |
| 2026-05-08 02:46 | 49.93696 | 8.95533 | 9544 ft | 224 kts | 286° |
| 2026-05-08 02:46 | 49.94140 | 8.93216 | 9412 ft | 224 kts | 286° |
| 2026-05-08 02:47 | 49.94582 | 8.90896 | 9275 ft | 223 kts | 286° |
| 2026-05-08 02:47 | 49.95023 | 8.88587 | 9146 ft | 223 kts | 286° |
| 2026-05-08 02:47 | 49.95462 | 8.86283 | 9010 ft | 222 kts | 286° |
| 2026-05-08 02:47 | 49.95865 | 8.83962 | 8881 ft | 222 kts | 277° |
| 2026-05-08 02:48 | 49.95753 | 8.81597 | 8758 ft | 221 kts | 257° |
| 2026-05-08 02:48 | 49.95420 | 8.79265 | 8629 ft | 221 kts | 258° |
| 2026-05-08 02:48 | 49.95088 | 8.76936 | 8500 ft | 220 kts | 258° |
| 2026-05-08 02:48 | 49.94758 | 8.74645 | 8374 ft | 220 kts | 258° |
| 2026-05-08 02:49 | 49.94425 | 8.72332 | 8246 ft | 219 kts | 258° |
| 2026-05-08 02:49 | 49.94092 | 8.70019 | 8118 ft | 219 kts | 258° |
| 2026-05-08 02:49 | 49.93760 | 8.67709 | 7991 ft | 218 kts | 258° |
| 2026-05-08 02:49 | 49.93428 | 8.65415 | 7860 ft | 218 kts | 258° |
| 2026-05-08 02:50 | 49.93093 | 8.63115 | 7736 ft | 218 kts | 258° |
| 2026-05-08 02:50 | 49.92761 | 8.60828 | 7612 ft | 217 kts | 258° |
| 2026-05-08 02:50 | 49.92430 | 8.58543 | 7485 ft | 217 kts | 258° |
| 2026-05-08 02:50 | 49.92104 | 8.56292 | 7349 ft | 216 kts | 258° |
| 2026-05-08 02:51 | 49.91769 | 8.53992 | 7233 ft | 215 kts | 258° |
| 2026-05-08 02:51 | 49.91436 | 8.51725 | 7139 ft | 215 kts | 258° |
| 2026-05-08 02:51 | 49.91104 | 8.49465 | 7100 ft | 215 kts | 258° |
| 2026-05-08 02:51 | 49.90770 | 8.47202 | 6987 ft | 215 kts | 258° |
| 2026-05-08 02:52 | 49.90441 | 8.44974 | 6862 ft | 214 kts | 258° |
| 2026-05-08 02:52 | 49.90107 | 8.42723 | 6740 ft | 214 kts | 258° |
| 2026-05-08 02:52 | 49.89775 | 8.40476 | 6618 ft | 213 kts | 258° |
| 2026-05-08 02:52 | 49.89444 | 8.38234 | 6494 ft | 213 kts | 258° |
| 2026-05-08 02:53 | 49.89115 | 8.35997 | 6364 ft | 213 kts | 257° |
| 2026-05-08 02:53 | 49.88786 | 8.33753 | 6230 ft | 214 kts | 257° |
| 2026-05-08 02:53 | 49.88455 | 8.31504 | 6100 ft | 214 kts | 257° |
| 2026-05-08 02:53 | 49.88016 | 8.29301 | 5973 ft | 214 kts | 249° |
| 2026-05-08 02:54 | 49.87487 | 8.27148 | 5836 ft | 214 kts | 250° |
| 2026-05-08 02:54 | 49.86962 | 8.24993 | 5711 ft | 214 kts | 250° |
| 2026-05-08 02:54 | 49.86439 | 8.22839 | 5583 ft | 213 kts | 250° |
| 2026-05-08 02:54 | 49.86092 | 8.21410 | 5497 ft | 213 kts | 250° |
| 2026-05-08 02:55 | 49.85569 | 8.19259 | 5367 ft | 213 kts | 250° |
| 2026-05-08 02:55 | 49.85228 | 8.14814 | 5122 ft | 213 kts | 291° |
| 2026-05-08 02:55 | 49.86067 | 8.12949 | 5025 ft | 213 kts | 321° |
| 2026-05-08 02:56 | 49.87397 | 8.11999 | 5004 ft | 213 kts | 352° |
| 2026-05-08 02:56 | 49.88863 | 8.12165 | 5009 ft | 213 kts | 14° |
| 2026-05-08 02:56 | 49.90313 | 8.12694 | 5006 ft | 214 kts | 14° |
| 2026-05-08 02:56 | 49.91760 | 8.13214 | 5005 ft | 213 kts | 13° |
| 2026-05-08 02:57 | 49.93210 | 8.13735 | 5007 ft | 213 kts | 14° |
| 2026-05-08 02:57 | 49.94548 | 8.14686 | 4991 ft | 211 kts | 36° |
| 2026-05-08 02:57 | 49.95528 | 8.16263 | 4848 ft | 203 kts | 57° |
| 2026-05-08 02:57 | 49.96105 | 8.18250 | 4611 ft | 201 kts | 69° |
| 2026-05-08 02:58 | 49.96599 | 8.20285 | 4343 ft | 201 kts | 70° |
| 2026-05-08 02:58 | 49.97094 | 8.22325 | 4065 ft | 202 kts | 69° |
| 2026-05-08 02:58 | 49.97585 | 8.24347 | 3791 ft | 197 kts | 69° |
| 2026-05-08 02:58 | 49.98059 | 8.26299 | 3532 ft | 189 kts | 70° |
| 2026-05-08 02:59 | 49.98515 | 8.28182 | 3290 ft | 182 kts | 70° |
| 2026-05-08 02:59 | 49.98956 | 8.30003 | 3042 ft | 178 kts | 70° |
| 2026-05-08 02:59 | 49.99384 | 8.31771 | 2797 ft | 171 kts | 70° |
| 2026-05-08 02:59 | 49.99793 | 8.33460 | 2567 ft | 163 kts | 70° |
| 2026-05-08 03:00 | 50.00183 | 8.35073 | 2346 ft | 156 kts | 70° |
| 2026-05-08 03:00 | 50.00556 | 8.36620 | 2141 ft | 149 kts | 70° |
| 2026-05-08 03:00 | 50.00912 | 8.38093 | 1944 ft | 142 kts | 70° |
| 2026-05-08 03:00 | 50.01254 | 8.39511 | 1753 ft | 138 kts | 70° |
| 2026-05-08 03:01 | 50.01588 | 8.40900 | 1562 ft | 137 kts | 70° |
| 2026-05-08 03:01 | 50.01921 | 8.42282 | 1368 ft | 136 kts | 70° |
| 2026-05-08 03:01 | 50.02253 | 8.43661 | 1172 ft | 136 kts | 69° |
| 2026-05-08 03:01 | 50.02582 | 8.45032 | 994 ft | 135 kts | 68° |
| 2026-05-08 03:02 | 50.02909 | 8.46392 | 804 ft | 134 kts | 68° |
| 2026-05-08 03:02 | 50.03231 | 8.47738 | 626 ft | 132 kts | 68° |
| 2026-05-08 03:02 | 50.03552 | 8.49078 | 438 ft | 132 kts | 67° |
| 2026-05-08 03:02 | 50.03866 | 8.50387 | 321 ft | 119 kts | 69° |
| 2026-05-08 03:03 | 50.04126 | 8.51462 | 329 ft | 91 kts | 69° |
| 2026-05-08 03:03 | 50.04315 | 8.52250 | 348 ft | 60 kts | 70° |
| 2026-05-08 03:03 | 50.04395 | 8.52674 | 351 ft | 30 kts | 88° |
| 2026-05-08 03:03 | 50.04379 | 8.52945 | 353 ft | 24 kts | 99° |
| 2026-05-08 03:04 | 50.04354 | 8.53184 | 361 ft | 20 kts | 99° |
| 2026-05-08 03:04 | 50.04356 | 8.53331 | 373 ft | 11 kts | 69° |
| 2026-05-08 03:04 | 50.04378 | 8.53419 | 372 ft | 7 kts | 70° |
| 2026-05-08 03:04 | 50.04390 | 8.53474 | 374 ft | 5 kts | 71° |
| 2026-05-08 03:05 | 50.04397 | 8.53539 | 375 ft | 8 kts | 84° |
| 2026-05-08 03:05 | 50.04402 | 8.53629 | 375 ft | 9 kts | 84° |
| 2026-05-08 03:05 | 50.04409 | 8.53739 | 375 ft | 11 kts | 85° |
| 2026-05-08 03:05 | 50.04419 | 8.53870 | 376 ft | 13 kts | 83° |
| 2026-05-08 03:06 | 50.04429 | 8.54020 | 375 ft | 15 kts | 84° |
| 2026-05-08 03:06 | 50.04440 | 8.54190 | 375 ft | 17 kts | 84° |
| 2026-05-08 03:06 | 50.04453 | 8.54382 | 373 ft | 19 kts | 84° |
| 2026-05-08 03:06 | 50.04438 | 8.54563 | 367 ft | 17 kts | 110° |
| 2026-05-08 03:07 | 50.04369 | 8.54717 | 361 ft | 18 kts | 139° |
| 2026-05-08 03:07 | 50.04269 | 8.54798 | 355 ft | 14 kts | 161° |
| 2026-05-08 03:07 | 50.04164 | 8.54855 | 355 ft | 17 kts | 160° |
| 2026-05-08 03:07 | 50.04053 | 8.54918 | 354 ft | 16 kts | 159° |
| 2026-05-08 03:08 | 50.03964 | 8.54973 | 352 ft | 13 kts | 159° |
| 2026-05-08 03:08 | 50.03877 | 8.55023 | 354 ft | 13 kts | 160° |
| 2026-05-08 03:08 | 50.03845 | 8.55102 | 349 ft | 9 kts | 67° |
| 2026-05-08 03:08 | 50.03865 | 8.55183 | 350 ft | 8 kts | 69° |
| 2026-05-08 03:09 | 50.03888 | 8.55276 | 352 ft | 10 kts | 69° |
| 2026-05-08 03:09 | 50.03915 | 8.55391 | 353 ft | 12 kts | 70° |
| 2026-05-08 03:09 | 50.03946 | 8.55523 | 354 ft | 14 kts | 70° |
| 2026-05-08 03:09 | 50.03984 | 8.55681 | 353 ft | 16 kts | 69° |
| 2026-05-08 03:10 | 50.04026 | 8.55855 | 358 ft | 18 kts | 70° |
| 2026-05-08 03:10 | 50.04070 | 8.56044 | 359 ft | 19 kts | 69° |
| 2026-05-08 03:10 | 50.04119 | 8.56245 | 355 ft | 21 kts | 70° |
| 2026-05-08 03:10 | 50.04170 | 8.56458 | 359 ft | 21 kts | 69° |
| 2026-05-08 03:11 | 50.04220 | 8.56667 | 364 ft | 20 kts | 70° |
| 2026-05-08 03:11 | 50.04263 | 8.56848 | 362 ft | 16 kts | 69° |
| 2026-05-08 03:11 | 50.04299 | 8.57000 | 367 ft | 14 kts | 69° |
| 2026-05-08 03:11 | 50.04331 | 8.57135 | 364 ft | 13 kts | 70° |
| 2026-05-08 03:12 | 50.04364 | 8.57275 | 363 ft | 15 kts | 70° |
| 2026-05-08 03:12 | 50.04404 | 8.57439 | 364 ft | 17 kts | 70° |
| 2026-05-08 03:12 | 50.04448 | 8.57622 | 367 ft | 18 kts | 69° |
| 2026-05-08 03:12 | 50.04495 | 8.57818 | 365 ft | 20 kts | 70° |
| 2026-05-08 03:13 | 50.04536 | 8.57991 | 367 ft | 11 kts | 70° |
| 2026-05-08 03:13 | 50.04596 | 8.58025 | 360 ft | 13 kts | 336° |
| 2026-05-08 03:13 | 50.04688 | 8.57972 | 358 ft | 14 kts | 340° |
| 2026-05-08 03:13 | 50.04777 | 8.57920 | 358 ft | 13 kts | 339° |
| 2026-05-08 03:14 | 50.04843 | 8.57857 | 358 ft | 10 kts | 297° |
| 2026-05-08 03:14 | 50.04868 | 8.57765 | 362 ft | 9 kts | 293° |
| 2026-05-08 03:14 | 50.04891 | 8.57681 | 361 ft | 8 kts | 293° |
| 2026-05-08 03:14 | 50.04914 | 8.57599 | 358 ft | 8 kts | 295° |
| 2026-05-08 03:15 | 50.04936 | 8.57526 | 358 ft | 7 kts | 295° |
| 2026-05-08 03:15 | 50.04962 | 8.57487 | 358 ft | 5 kts | 2° |
| 2026-05-08 03:15 | 50.04989 | 8.57508 | 356 ft | 3 kts | 23° |
| 2026-05-08 03:15 | 50.05006 | 8.57517 | 360 ft | 2 kts | 21° |
| 2026-05-08 03:16 | 50.05015 | 8.57523 | 358 ft | 0 kts | 21° |
| 2026-05-08 03:30 | 50.04986 | 8.57505 | 362 ft | 4 kts | 21° |
| 2026-05-08 03:31 | 50.04948 | 8.57483 | 360 ft | 0 kts | 21° |
| 2026-05-08 03:31 | 50.04946 | 8.57497 | 360 ft | 7 kts | 124° |
| 2026-05-08 03:32 | 50.04909 | 8.57618 | 359 ft | 16 kts | 114° |
| 2026-05-08 03:32 | 50.04874 | 8.57740 | 360 ft | 7 kts | 114° |
| 2026-05-08 03:32 | 50.04836 | 8.57869 | 363 ft | 4 kts | 130° |
| 2026-05-08 03:32 | 50.04777 | 8.57920 | 358 ft | 7 kts | 166° |
| 2026-05-08 03:33 | 50.04717 | 8.57905 | 364 ft | 11 kts | 224° |
| 2026-05-08 03:33 | 50.04690 | 8.57829 | 360 ft | 6 kts | 251° |
| 2026-05-08 03:33 | 50.04655 | 8.57681 | 360 ft | 16 kts | 249° |
| 2026-05-08 03:33 | 50.04618 | 8.57524 | 358 ft | 16 kts | 249° |
| 2026-05-08 03:34 | 50.04580 | 8.57366 | 361 ft | 16 kts | 249° |
| 2026-05-08 03:34 | 50.04542 | 8.57209 | 362 ft | 16 kts | 249° |
| 2026-05-08 03:34 | 50.04505 | 8.57051 | 359 ft | 16 kts | 249° |
| 2026-05-08 03:34 | 50.04467 | 8.56894 | 363 ft | 16 kts | 249° |
| 2026-05-08 03:35 | 50.04430 | 8.56737 | 358 ft | 16 kts | 249° |
| 2026-05-08 03:35 | 50.04392 | 8.56579 | 359 ft | 16 kts | 249° |
| 2026-05-08 03:35 | 50.04354 | 8.56422 | 359 ft | 16 kts | 249° |
| 2026-05-08 03:35 | 50.04317 | 8.56264 | 358 ft | 16 kts | 249° |
| 2026-05-08 03:36 | 50.04279 | 8.56107 | 356 ft | 16 kts | 249° |
| 2026-05-08 03:36 | 50.04241 | 8.55950 | 355 ft | 16 kts | 249° |
| 2026-05-08 03:36 | 50.04204 | 8.55792 | 358 ft | 16 kts | 249° |
| 2026-05-08 03:36 | 50.04166 | 8.55635 | 358 ft | 16 kts | 249° |
| 2026-05-08 03:37 | 50.04129 | 8.55477 | 353 ft | 16 kts | 249° |
| 2026-05-08 03:37 | 50.04091 | 8.55320 | 357 ft | 16 kts | 249° |
| 2026-05-08 03:37 | 50.04053 | 8.55162 | 357 ft | 16 kts | 249° |
| 2026-05-08 03:37 | 50.04016 | 8.55005 | 356 ft | 16 kts | 249° |
| 2026-05-08 03:38 | 50.03987 | 8.54886 | 355 ft | 11 kts | 249° |
| 2026-05-08 03:38 | 50.03963 | 8.54784 | 355 ft | 16 kts | 249° |
| 2026-05-08 03:38 | 50.03935 | 8.54667 | 356 ft | 16 kts | 249° |
| 2026-05-08 03:38 | 50.03910 | 8.54574 | 350 ft | 7 kts | 229° |
| 2026-05-08 03:39 | 50.03868 | 8.54558 | 353 ft | 5 kts | 166° |
| 2026-05-08 03:39 | 50.03827 | 8.54580 | 352 ft | 7 kts | 160° |
| 2026-05-08 03:39 | 50.03818 | 8.54585 | 348 ft | 0 kts | 160° |